Time;durP1;ratioP1;P1;durP2;ratioP2;P2;SDS_P1;SDS_P2;PMS_P1;PMS_P2;Temp;Humidity;BMP_temperature;BMP_pressure;BME280_temperature;BME280_humidity;BME280_pressure;Samples;Min_cycle;Max_cycle;Signal;HPM_P1;HPM_P2
2022/08/23 00:01:23;;;;;;;7.55;4.88;;;20.70;64.70;;;;;;4965527;28;20089;-85
2022/08/23 00:03:49;;;;;;;7.65;5.28;;;20.70;65.00;;;;;;4975020;28;20034;-84
2022/08/23 00:06:15;;;;;;;5.20;4.68;;;20.60;65.60;;;;;;4986851;28;20037;-85
2022/08/23 00:08:40;;;;;;;3.80;3.50;;;20.60;65.40;;;;;;4963529;28;20053;-85
2022/08/23 00:11:06;;;;;;;7.05;4.75;;;20.60;65.40;;;;;;4971579;28;20474;-84
2022/08/23 00:13:32;;;;;;;10.32;4.72;;;20.60;65.30;;;;;;4971661;28;20081;-85
2022/08/23 00:15:59;;;;;;;5.82;4.85;;;20.60;65.90;;;;;;4968912;28;20060;-84
2022/08/23 00:18:25;;;;;;;6.35;5.07;;;20.50;68.00;;;;;;4971747;28;20034;-85
2022/08/23 00:20:51;;;;;;;8.45;5.15;;;20.40;69.60;;;;;;4969808;28;20037;-84
2022/08/23 00:23:16;;;;;;;9.90;5.00;;;20.40;69.30;;;;;;4972354;28;20037;-84
2022/08/23 00:25:42;;;;;;;7.32;4.72;;;20.40;68.20;;;;;;4959227;28;20022;-84
2022/08/23 00:28:08;;;;;;;14.05;5.28;;;20.30;69.50;;;;;;4983824;28;20084;-84
2022/08/23 00:30:34;;;;;;;8.50;4.60;;;20.30;68.90;;;;;;4984723;28;20496;-83
2022/08/23 00:32:59;;;;;;;8.13;4.50;;;20.20;70.70;;;;;;4984485;28;20035;-85
2022/08/23 00:35:25;;;;;;;7.43;4.65;;;20.10;69.80;;;;;;4970322;28;20441;-84
2022/08/23 00:37:51;;;;;;;8.00;5.00;;;20.10;69.70;;;;;;4972871;28;20048;-84
2022/08/23 00:40:17;;;;;;;6.20;5.20;;;20.10;70.80;;;;;;4973178;28;20052;-85
2022/08/23 00:48:24;;;;;;;10.02;5.35;;;19.90;69.80;;;;;;5005568;28;20045;-83
2022/08/23 00:51:07;;;;;;;10.93;5.53;;;19.80;69.20;;;;;;4976510;28;20026;-84
2022/08/23 00:53:36;;;;;;;6.55;5.30;;;19.70;68.50;;;;;;4991409;28;20034;-84
2022/08/23 00:56:03;;;;;;;8.30;4.80;;;19.80;67.80;;;;;;4973327;28;20052;-84
2022/08/23 00:58:29;;;;;;;9.55;5.13;;;19.60;69.70;;;;;;4974653;28;20038;-84
2022/08/23 01:00:55;;;;;;;6.25;4.70;;;19.50;69.50;;;;;;4974143;28;20383;-84
2022/08/23 01:03:22;;;;;;;8.57;5.20;;;19.40;70.10;;;;;;4972518;28;20099;-84
2022/08/23 01:05:47;;;;;;;7.95;5.28;;;19.30;71.40;;;;;;4962550;28;20058;-84
2022/08/23 01:08:13;;;;;;;10.32;4.72;;;19.20;72.10;;;;;;4991892;28;20061;-84
2022/08/23 01:10:51;;;;;;;7.43;4.57;;;19.20;72.40;;;;;;4955135;28;20044;-83
2022/08/23 01:13:26;;;;;;;8.10;5.07;;;19.10;72.90;;;;;;4981192;28;20037;-84
2022/08/23 01:16:09;;;;;;;8.40;5.37;;;19.00;73.50;;;;;;4967432;28;20038;-84
2022/08/23 01:18:35;;;;;;;6.63;5.05;;;19.00;72.50;;;;;;4974377;28;20090;-84
2022/08/23 01:21:26;;;;;;;8.10;4.70;;;19.00;72.60;;;;;;4956633;28;20730;-84
2022/08/23 01:23:56;;;;;;;6.88;5.15;;;19.00;70.60;;;;;;4953445;28;20062;-84
2022/08/23 01:26:22;;;;;;;5.95;5.15;;;18.90;71.10;;;;;;4974118;28;20037;-85
2022/08/23 01:28:48;;;;;;;9.15;5.47;;;18.80;72.50;;;;;;4952813;28;20037;-84
2022/08/23 01:31:14;;;;;;;7.28;5.30;;;18.90;70.60;;;;;;4968230;28;20038;-83
2022/08/23 01:33:40;;;;;;;6.80;5.07;;;18.90;70.00;;;;;;4946694;28;20554;-82
2022/08/23 01:36:07;;;;;;;5.00;4.18;;;18.80;69.40;;;;;;4957224;28;20030;-84
2022/08/23 01:38:33;;;;;;;5.75;4.93;;;18.80;69.50;;;;;;4950580;28;20042;-84
2022/08/23 01:41:01;;;;;;;6.28;3.20;;;18.70;69.30;;;;;;4961738;28;20082;-83
2022/08/23 01:43:26;;;;;;;6.70;4.25;;;18.70;69.50;;;;;;4972315;28;20034;-83
2022/08/23 01:45:52;;;;;;;4.55;3.53;;;18.70;69.20;;;;;;4948590;28;20096;-84
2022/08/23 01:48:18;;;;;;;7.20;4.88;;;18.70;69.20;;;;;;4957548;28;20046;-83
2022/08/23 01:50:44;;;;;;;2.85;2.65;;;18.60;69.50;;;;;;4971257;28;20031;-84
2022/08/23 01:53:09;;;;;;;7.88;5.35;;;18.60;70.00;;;;;;4967234;28;20108;-83
2022/08/23 01:55:35;;;;;;;5.25;3.65;;;18.50;69.70;;;;;;4966843;28;20058;-83
2022/08/23 01:58:01;;;;;;;11.23;5.65;;;18.50;70.60;;;;;;4933767;28;20034;-83
2022/08/23 02:00:29;;;;;;;5.40;3.15;;;18.40;70.00;;;;;;4960172;28;20117;-84
2022/08/23 02:02:58;;;;;;;10.70;5.80;;;18.40;69.80;;;;;;4967700;28;20038;-81
2022/08/23 02:05:26;;;;;;;7.97;6.10;;;18.30;70.00;;;;;;4965404;28;20034;-83
2022/08/23 02:07:52;;;;;;;12.15;6.75;;;18.20;72.90;;;;;;4970239;28;20038;-83
2022/08/23 02:10:17;;;;;;;9.65;6.15;;;18.20;71.00;;;;;;4958021;28;20030;-82
2022/08/23 02:12:43;;;;;;;6.20;5.60;;;18.20;70.60;;;;;;4972725;28;20029;-83
2022/08/23 02:15:09;;;;;;;8.10;6.00;;;18.10;72.50;;;;;;4966554;28;20030;-83
2022/08/23 02:17:34;;;;;;;7.93;6.25;;;18.10;71.40;;;;;;4952010;28;20057;-84
2022/08/23 02:20:01;;;;;;;6.65;5.95;;;18.10;71.90;;;;;;4962803;28;20116;-83
2022/08/23 02:22:26;;;;;;;7.45;6.05;;;17.90;72.50;;;;;;4969471;28;20038;-82
2022/08/23 02:24:52;;;;;;;11.80;6.43;;;17.90;76.30;;;;;;4967607;28;20038;-83
2022/08/23 02:27:17;;;;;;;8.50;6.22;;;18.00;73.10;;;;;;4970244;28;20359;-83
2022/08/23 02:29:44;;;;;;;7.28;6.55;;;17.90;75.30;;;;;;4974627;28;20026;-83
2022/08/23 02:32:10;;;;;;;14.23;7.68;;;17.90;72.80;;;;;;4967902;28;20482;-82
2022/08/23 02:34:36;;;;;;;10.68;7.05;;;17.80;71.50;;;;;;4949347;28;20026;-83
2022/08/23 02:37:01;;;;;;;9.43;5.55;;;17.80;73.40;;;;;;4957579;28;20033;-82
2022/08/23 02:39:27;;;;;;;9.50;6.68;;;17.80;71.50;;;;;;4954647;28;20041;-83
2022/08/23 02:41:52;;;;;;;9.35;5.97;;;17.70;73.40;;;;;;4986146;28;20015;-83
2022/08/23 02:44:18;;;;;;;12.13;6.88;;;17.80;72.40;;;;;;4966999;28;20026;-83
2022/08/23 02:46:44;;;;;;;7.88;6.35;;;17.60;72.00;;;;;;4967445;28;20503;-83
2022/08/23 02:49:10;;;;;;;9.25;6.78;;;17.60;73.40;;;;;;4976840;28;20042;-83
2022/08/23 02:51:36;;;;;;;6.63;5.95;;;17.60;72.40;;;;;;4949882;28;20088;-83
2022/08/23 02:54:02;;;;;;;9.07;6.68;;;17.40;75.10;;;;;;4954446;28;20042;-80
2022/08/23 02:56:27;;;;;;;10.85;6.85;;;17.40;73.20;;;;;;4964934;28;20034;-81
2022/08/23 02:58:53;;;;;;;8.20;6.10;;;17.30;74.40;;;;;;4971298;28;20098;-81
2022/08/23 03:01:20;;;;;;;8.75;6.57;;;17.30;76.30;;;;;;4955167;28;20035;-81
2022/08/23 03:03:46;;;;;;;7.00;6.32;;;17.30;76.20;;;;;;4953641;28;20027;-81
2022/08/23 03:06:12;;;;;;;9.55;6.68;;;17.20;76.40;;;;;;4981556;28;20441;-80
2022/08/23 03:08:38;;;;;;;7.13;6.43;;;17.10;79.30;;;;;;4956922;28;20034;-80
2022/08/23 03:11:12;;;;;;;11.77;7.40;;;17.10;78.10;;;;;;4983231;28;20092;-80
2022/08/23 03:13:39;;;;;;;13.48;7.03;;;17.00;76.40;;;;;;4972652;28;20026;-80
2022/08/23 03:16:05;;;;;;;7.35;6.63;;;16.90;78.70;;;;;;4985248;28;20033;-80
2022/08/23 03:18:30;;;;;;;6.60;6.00;;;16.80;78.60;;;;;;4954792;28;20041;-80
2022/08/23 03:20:56;;;;;;;11.68;7.35;;;16.90;81.20;;;;;;4972261;28;20465;-81
2022/08/23 03:23:21;;;;;;;10.90;7.35;;;16.90;82.30;;;;;;4968091;28;20040;-80
2022/08/23 03:25:48;;;;;;;10.35;6.95;;;16.80;84.60;;;;;;4971322;28;20030;-80
2022/08/23 03:28:13;;;;;;;10.35;7.03;;;16.70;81.00;;;;;;4982027;28;20564;-80
2022/08/23 03:30:39;;;;;;;9.73;6.78;;;16.70;84.30;;;;;;4952526;28;20061;-80
2022/08/23 03:33:05;;;;;;;7.28;6.40;;;16.70;83.70;;;;;;4963938;28;20036;-80
2022/08/23 03:35:30;;;;;;;7.28;6.38;;;16.50;84.50;;;;;;4973436;28;20175;-80
2022/08/23 03:37:57;;;;;;;8.55;7.28;;;16.50;86.60;;;;;;4969435;28;20051;-80
2022/08/23 03:40:23;;;;;;;12.07;7.07;;;16.50;86.10;;;;;;4959436;28;20030;-80
2022/08/23 03:42:49;;;;;;;8.27;6.53;;;16.50;89.50;;;;;;4979181;28;20581;-80
2022/08/23 03:45:16;;;;;;;9.98;6.95;;;16.40;91.70;;;;;;4962560;28;20041;-80
2022/08/23 03:47:43;;;;;;;8.32;6.15;;;16.50;90.70;;;;;;4961307;28;20041;-79
2022/08/23 03:50:09;;;;;;;9.13;6.68;;;16.40;94.10;;;;;;4954389;28;20062;-80
2022/08/23 03:52:35;;;;;;;12.45;7.32;;;16.40;95.90;;;;;;4965788;28;20030;-80
2022/08/23 03:55:00;;;;;;;9.48;7.28;;;16.50;97.20;;;;;;4948194;28;20530;-80
2022/08/23 03:57:26;;;;;;;9.32;7.35;;;16.50;96.20;;;;;;4966703;28;20121;-79
2022/08/23 03:59:51;;;;;;;7.30;6.47;;;16.50;98.10;;;;;;4947132;28;20096;-79
2022/08/23 04:02:17;;;;;;;11.10;7.20;;;16.50;98.90;;;;;;4967192;28;20026;-79
2022/08/23 04:04:43;;;;;;;8.60;6.70;;;16.40;99.10;;;;;;4975470;28;20030;-79
2022/08/23 04:07:08;;;;;;;15.35;6.88;;;16.40;99.60;;;;;;4965061;28;20030;-80
2022/08/23 04:09:34;;;;;;;6.72;6.07;;;16.40;99.70;;;;;;4983483;28;20073;-79
2022/08/23 04:12:00;;;;;;;10.25;7.07;;;16.40;99.90;;;;;;4978256;28;20454;-80
2022/08/23 04:14:25;;;;;;;7.47;5.93;;;16.30;99.90;;;;;;4964610;28;20070;-80
2022/08/23 04:16:51;;;;;;;7.55;6.35;;;16.30;98.30;;;;;;4967434;28;20437;-80
2022/08/23 04:19:17;;;;;;;6.75;4.88;;;16.20;99.40;;;;;;4976359;28;20045;-80
2022/08/23 04:21:47;;;;;;;10.13;5.60;;;16.30;96.00;;;;;;4958425;28;20517;-80
2022/08/23 04:24:13;;;;;;;10.88;5.68;;;16.30;96.90;;;;;;4974715;28;20057;-80
2022/08/23 04:26:40;;;;;;;8.48;5.65;;;16.40;97.40;;;;;;4969011;28;20053;-79
2022/08/23 04:29:06;;;;;;;8.75;6.25;;;16.30;95.50;;;;;;4967421;28;20030;-80
2022/08/23 04:31:32;;;;;;;7.13;5.57;;;16.30;96.50;;;;;;4953650;28;20100;-81
2022/08/23 04:33:58;;;;;;;7.25;5.60;;;16.20;99.00;;;;;;4966142;28;20034;-79
2022/08/23 04:36:23;;;;;;;6.55;5.15;;;16.20;99.40;;;;;;4969641;28;20037;-78
2022/08/23 04:38:49;;;;;;;5.95;5.40;;;16.20;99.50;;;;;;4946595;28;20129;-78
2022/08/23 04:43:59;;;;;;;11.60;5.30;;;16.20;99.90;;;;;;4985179;28;20080;-79
2022/08/23 04:46:25;;;;;;;8.52;5.45;;;16.20;99.60;;;;;;4965309;28;20066;-79
2022/08/23 04:48:52;;;;;;;7.07;5.20;;;16.20;99.90;;;;;;4969061;28;20050;-79
2022/08/23 04:51:18;;;;;;;7.47;5.35;;;16.20;99.60;;;;;;4968753;28;20038;-80
2022/08/23 04:53:44;;;;;;;6.80;5.40;;;16.10;99.90;;;;;;4984778;28;20032;-79
2022/08/23 04:56:09;;;;;;;5.38;4.95;;;16.10;99.90;;;;;;4967779;28;20097;-79
2022/08/23 04:58:35;;;;;;;5.38;4.63;;;16.10;99.90;;;;;;4968326;28;20397;-81
2022/08/23 05:01:02;;;;;;;9.70;5.50;;;16.10;99.90;;;;;;4967233;28;20037;-80
2022/08/23 05:03:28;;;;;;;6.82;5.10;;;16.10;99.90;;;;;;4966967;28;20034;-79
2022/08/23 05:05:54;;;;;;;7.05;5.07;;;16.20;99.90;;;;;;4965558;28;20030;-79
2022/08/23 05:08:23;;;;;;;9.15;4.75;;;16.20;99.90;;;;;;4959513;28;20034;-81
2022/08/23 05:10:49;;;;;;;5.90;4.72;;;16.40;98.80;;;;;;4968348;28;20049;-80
2022/08/23 05:13:14;;;;;;;5.18;4.10;;;16.40;99.20;;;;;;4970256;28;20029;-80
2022/08/23 05:15:40;;;;;;;5.22;4.60;;;16.40;99.30;;;;;;4985177;28;20044;-79
2022/08/23 05:18:06;;;;;;;10.18;4.40;;;16.60;99.90;;;;;;4967012;28;20041;-79
2022/08/23 05:20:32;;;;;;;10.80;4.47;;;16.70;99.10;;;;;;4965567;28;20076;-79
2022/08/23 05:22:59;;;;;;;7.47;4.28;;;16.70;98.40;;;;;;4967209;28;20084;-80
2022/08/23 05:25:48;;;;;;;4.40;3.55;;;16.80;98.10;;;;;;4968330;28;20030;-78
2022/08/23 05:28:10;;;;;;;8.23;4.63;;;16.90;98.90;;;;;;4974071;28;20049;-79
2022/08/23 05:30:36;;;;;;;8.88;3.85;;;17.00;98.90;;;;;;4973225;28;20034;-78
2022/08/23 05:33:01;;;;;;;6.60;4.10;;;17.10;98.40;;;;;;4954834;28;20040;-79
2022/08/23 05:35:27;;;;;;;5.35;3.50;;;17.20;98.50;;;;;;4972705;28;20030;-79
2022/08/23 05:37:53;;;;;;;5.85;3.78;;;17.40;98.00;;;;;;4969120;28;20042;-79
2022/08/23 05:40:18;;;;;;;5.25;4.38;;;17.50;97.80;;;;;;4968745;28;20571;-78
2022/08/23 05:42:44;;;;;;;9.18;5.38;;;17.60;97.90;;;;;;4971161;28;20038;-79
2022/08/23 05:45:14;;;;;;;7.45;4.78;;;17.70;97.00;;;;;;4972437;28;20065;-80
2022/08/23 05:47:39;;;;;;;3.83;2.97;;;17.80;97.00;;;;;;4972099;28;20120;-79
2022/08/23 05:50:05;;;;;;;5.82;2.75;;;18.00;94.80;;;;;;4969235;28;20065;-79
2022/08/23 05:52:31;;;;;;;4.88;3.55;;;18.10;93.60;;;;;;4962794;28;20041;-79
2022/08/23 05:54:56;;;;;;;3.88;3.47;;;18.30;94.50;;;;;;4966440;28;20049;-78
2022/08/23 05:57:23;;;;;;;4.55;3.33;;;18.40;93.60;;;;;;4972936;28;20034;-79
2022/08/23 05:59:54;;;;;;;5.82;3.17;;;18.40;94.40;;;;;;4735161;28;10001071;-79
2022/08/23 06:02:19;;;;;;;4.20;3.42;;;18.60;94.40;;;;;;4981356;28;20242;-80
2022/08/23 06:04:45;;;;;;;5.47;2.97;;;18.80;94.60;;;;;;4964750;28;20030;-80
2022/08/23 06:07:10;;;;;;;4.18;2.75;;;19.00;93.90;;;;;;4978620;28;20092;-79
2022/08/23 06:09:36;;;;;;;3.92;3.15;;;19.10;91.80;;;;;;4956441;28;20473;-80
2022/08/23 06:12:02;;;;;;;6.50;3.25;;;19.20;92.20;;;;;;4955154;28;20034;-78
2022/08/23 06:14:27;;;;;;;9.90;3.20;;;19.20;91.40;;;;;;4983023;28;20397;-78
2022/08/23 06:16:53;;;;;;;6.38;2.90;;;19.40;91.30;;;;;;4971741;28;20024;-79
2022/08/23 06:19:19;;;;;;;4.22;2.75;;;19.60;92.10;;;;;;4971189;28;20072;-79
2022/08/23 06:21:44;;;;;;;5.00;2.83;;;19.80;90.60;;;;;;4968499;28;20044;-78
2022/08/23 06:24:11;;;;;;;6.50;3.10;;;19.80;90.30;;;;;;4948086;28;20092;-80
2022/08/23 06:26:38;;;;;;;6.65;2.92;;;20.00;90.90;;;;;;4971661;28;20478;-77
2022/08/23 06:29:07;;;;;;;5.88;2.70;;;20.20;90.30;;;;;;4970337;28;20025;-78
2022/08/23 06:31:45;;;;;;;5.93;3.20;;;20.30;89.60;;;;;;4967709;28;20038;-78
2022/08/23 06:34:32;;;;;;;3.15;2.50;;;20.40;88.00;;;;;;4970644;28;20089;-79
2022/08/23 06:36:59;;;;;;;5.25;2.90;;;20.70;88.10;;;;;;4985378;28;20414;-79
2022/08/23 06:39:26;;;;;;;8.50;2.70;;;20.90;87.10;;;;;;4961496;28;20038;-79
2022/08/23 06:41:52;;;;;;;5.25;2.50;;;21.00;86.40;;;;;;4962663;28;20030;-78
2022/08/23 06:44:18;;;;;;;4.35;2.40;;;21.20;84.80;;;;;;4960930;28;20038;-78
2022/08/23 06:46:44;;;;;;;10.32;2.90;;;21.40;84.50;;;;;;4965342;28;20624;-78
2022/08/23 06:49:10;;;;;;;6.60;2.20;;;21.40;83.70;;;;;;4954567;28;20046;-79
2022/08/23 06:51:40;;;;;;;3.20;2.40;;;21.60;82.20;;;;;;4980182;28;20038;-78
2022/08/23 06:54:08;;;;;;;5.95;2.50;;;21.60;81.40;;;;;;4955018;28;20036;-78
2022/08/23 06:56:34;;;;;;;3.42;2.38;;;21.80;82.40;;;;;;4966308;28;20401;-79
2022/08/23 06:59:03;;;;;;;6.43;2.78;;;22.10;81.40;;;;;;4960774;28;20042;-78
2022/08/23 07:01:47;;;;;;;5.70;2.55;;;22.20;81.50;;;;;;4970039;28;20375;-79
2022/08/23 07:04:15;;;;;;;3.15;2.10;;;22.40;80.20;;;;;;5004621;28;20513;-79
2022/08/23 07:06:41;;;;;;;4.50;2.10;;;22.50;79.20;;;;;;4958365;28;20030;-79
2022/08/23 07:09:07;;;;;;;4.03;2.28;;;22.50;78.20;;;;;;4979495;28;20034;-80
2022/08/23 07:11:33;;;;;;;5.15;3.28;;;22.70;77.00;;;;;;4971647;28;20026;-79
2022/08/23 07:13:59;;;;;;;2.67;2.20;;;22.90;75.90;;;;;;4972379;28;20022;-79
2022/08/23 07:16:30;;;;;;;4.95;2.03;;;22.90;77.00;;;;;;4980902;28;20551;-79
2022/08/23 07:18:56;;;;;;;4.35;2.30;;;23.00;74.50;;;;;;4966610;28;20041;-81
2022/08/23 07:21:22;;;;;;;5.25;1.90;;;23.30;75.00;;;;;;4979095;28;20041;-81
2022/08/23 07:23:47;;;;;;;6.00;2.05;;;23.40;73.80;;;;;;4969142;28;20037;-82
2022/08/23 07:26:14;;;;;;;11.10;2.45;;;23.60;73.10;;;;;;4967517;28;20029;-79
2022/08/23 07:28:40;;;;;;;9.48;2.40;;;23.60;71.90;;;;;;4963921;28;20026;-80
2022/08/23 07:31:16;;;;;;;4.95;1.85;;;23.70;70.60;;;;;;4980912;28;20042;-81
2022/08/23 07:33:42;;;;;;;3.40;2.25;;;24.00;70.60;;;;;;4950555;28;20034;-79
2022/08/23 07:36:08;;;;;;;5.15;2.42;;;24.30;69.30;;;;;;4962945;28;20053;-81
2022/08/23 07:38:34;;;;;;;5.28;1.90;;;24.40;68.50;;;;;;4956223;28;20080;-80
2022/08/23 07:41:02;;;;;;;5.15;2.30;;;24.40;67.90;;;;;;4977010;28;20675;-79
2022/08/23 07:43:28;;;;;;;2.88;2.00;;;24.40;67.80;;;;;;4965456;28;20148;-80
2022/08/23 07:45:53;;;;;;;10.02;2.10;;;24.60;67.40;;;;;;4951078;28;20030;-80
2022/08/23 07:48:19;;;;;;;2.88;2.17;;;24.70;66.40;;;;;;4968363;28;20521;-80
2022/08/23 07:50:57;;;;;;;8.13;2.35;;;24.90;66.10;;;;;;4970113;28;20613;-80
2022/08/23 07:53:23;;;;;;;3.28;2.30;;;25.00;65.40;;;;;;4951818;28;20038;-81
2022/08/23 07:55:49;;;;;;;5.95;2.65;;;25.20;64.60;;;;;;4956218;28;20099;-80
2022/08/23 07:58:15;;;;;;;5.25;2.55;;;25.20;65.70;;;;;;4956444;28;20046;-80
2022/08/23 08:00:40;;;;;;;7.28;2.40;;;25.20;66.00;;;;;;4968175;28;20030;-79
2022/08/23 08:03:06;;;;;;;5.13;2.65;;;25.50;64.90;;;;;;4970655;28;20049;-80
2022/08/23 08:05:32;;;;;;;5.75;2.25;;;25.70;64.80;;;;;;4969760;28;20026;-81
2022/08/23 08:07:58;;;;;;;4.72;2.03;;;25.70;64.70;;;;;;4962800;28;20170;-81
2022/08/23 08:10:23;;;;;;;9.05;2.30;;;25.80;64.90;;;;;;4980298;28;20127;-80
2022/08/23 08:12:49;;;;;;;8.55;2.95;;;26.00;63.90;;;;;;4977266;28;20169;-80
2022/08/23 08:15:16;;;;;;;5.45;2.60;;;26.10;64.80;;;;;;4969638;28;20535;-81
2022/08/23 08:17:41;;;;;;;6.60;2.67;;;26.20;64.60;;;;;;4954248;28;20044;-81
2022/08/23 08:20:07;;;;;;;11.27;2.38;;;26.40;63.20;;;;;;4968668;28;20031;-81
2022/08/23 08:22:33;;;;;;;10.43;3.40;;;26.50;62.70;;;;;;4956905;28;20030;-81
2022/08/23 08:24:59;;;;;;;8.35;2.97;;;26.70;62.10;;;;;;4981689;28;20456;-80
2022/08/23 08:27:25;;;;;;;4.60;2.38;;;26.90;61.50;;;;;;4985017;28;20082;-81
2022/08/23 08:29:50;;;;;;;7.20;2.65;;;27.10;61.50;;;;;;4977531;28;20042;-82
2022/08/23 08:32:16;;;;;;;5.03;2.15;;;27.50;60.20;;;;;;4967714;28;20055;-80
2022/08/23 08:34:41;;;;;;;6.82;2.42;;;27.60;60.70;;;;;;4971491;28;20038;-82
2022/08/23 08:37:07;;;;;;;10.52;2.72;;;27.60;59.80;;;;;;4980417;28;20035;-83
2022/08/23 08:39:33;;;;;;;6.75;2.45;;;27.70;60.30;;;;;;4987122;28;20022;-82
2022/08/23 08:42:22;;;;;;;8.73;2.45;;;27.50;61.90;;;;;;4969909;28;20034;-82
2022/08/23 08:44:48;;;;;;;5.57;2.72;;;28.20;59.20;;;;;;4987568;28;20022;-82
2022/08/23 08:47:20;;;;;;;5.50;2.78;;;28.70;58.30;;;;;;5002258;28;20035;-83
2022/08/23 08:49:50;;;;;;;6.70;3.20;;;28.70;57.40;;;;;;4960548;28;20042;-83
2022/08/23 08:52:23;;;;;;;3.95;2.70;;;28.40;58.50;;;;;;4973492;28;20031;-83
2022/08/23 08:54:49;;;;;;;5.97;3.03;;;28.40;59.20;;;;;;4953567;28;20479;-83
2022/08/23 08:57:17;;;;;;;5.93;2.53;;;28.40;59.10;;;;;;4975412;28;20120;-84
2022/08/23 08:59:59;;;;;;;4.68;2.70;;;29.10;57.50;;;;;;4984931;28;20397;-84
2022/08/23 09:02:27;;;;;;;5.10;2.78;;;29.50;56.40;;;;;;4979212;28;20327;-84
2022/08/23 09:04:53;;;;;;;6.57;3.13;;;29.40;57.10;;;;;;4974012;28;20037;-85
2022/08/23 09:11:15;;;;;;;8.57;3.20;;;29.60;56.50;;;;;;4918428;29;20118;-85
2022/08/23 09:13:54;;;;;;;3.90;2.65;;;29.60;58.40;;;;;;4950097;28;20056;-85
2022/08/23 09:16:25;;;;;;;6.47;2.75;;;29.10;58.50;;;;;;4970941;28;20030;-85
2022/08/23 09:18:53;;;;;;;7.22;2.85;;;29.20;59.10;;;;;;5001254;28;20498;-86
2022/08/23 09:21:19;;;;;;;6.28;2.53;;;29.50;57.80;;;;;;4968452;28;20417;-85
2022/08/23 09:23:45;;;;;;;5.90;3.08;;;29.50;58.50;;;;;;4952183;28;20062;-86
2022/08/23 09:26:21;;;;;;;5.50;2.72;;;30.00;56.60;;;;;;4974511;28;20038;-86
2022/08/23 09:28:48;;;;;;;4.57;2.80;;;29.90;56.60;;;;;;4972504;28;20461;-87
2022/08/23 09:31:34;;;;;;;4.28;2.50;;;30.30;56.20;;;;;;4963117;28;20041;-88
2022/08/23 09:34:00;;;;;;;4.22;2.83;;;30.80;55.80;;;;;;4986251;28;20053;-88
2022/08/23 09:36:27;;;;;;;2.65;2.28;;;30.00;58.60;;;;;;4970888;28;20067;-88
2022/08/23 09:38:54;;;;;;;6.28;2.70;;;29.90;58.20;;;;;;4972392;28;20038;-84
2022/08/23 09:41:43;;;;;;;6.45;2.72;;;30.70;54.50;;;;;;4973807;28;20030;-84
2022/08/23 09:44:12;;;;;;;8.88;3.63;;;30.80;55.00;;;;;;4973164;28;20022;-89
2022/08/23 09:46:40;;;;;;;7.88;2.58;;;30.30;57.70;;;;;;4992552;28;20034;-87
2022/08/23 09:49:24;;;;;;;5.07;2.55;;;30.50;56.50;;;;;;4958426;28;20046;-88
2022/08/23 09:51:52;;;;;;;4.70;2.78;;;30.60;56.60;;;;;;4963856;28;20026;-89
2022/08/23 09:54:26;;;;;;;6.57;2.75;;;31.30;54.60;;;;;;4964726;28;20165;-84
2022/08/23 09:56:54;;;;;;;8.05;3.20;;;31.80;55.30;;;;;;4971728;28;20487;-91
2022/08/23 09:59:33;;;;;;;4.43;3.00;;;31.00;56.00;;;;;;4975562;28;20486;-89
2022/08/23 10:01:59;;;;;;;3.10;2.67;;;30.80;57.20;;;;;;4959073;28;20050;-89
2022/08/23 10:04:40;;;;;;;4.30;3.03;;;31.10;56.90;;;;;;4958210;28;20088;-90
2022/08/23 10:07:31;;;;;;;3.55;2.55;;;31.10;56.20;;;;;;5000444;28;20541;-89
2022/08/23 10:10:16;;;;;;;6.55;2.45;;;31.60;55.10;;;;;;4988317;28;20091;-88
2022/08/23 10:12:42;;;;;;;6.47;2.72;;;31.50;55.70;;;;;;4983336;28;20090;-88
2022/08/23 10:15:08;;;;;;;11.73;3.53;;;31.40;56.50;;;;;;4968067;28;20648;-86
2022/08/23 10:17:43;;;;;;;7.28;2.78;;;31.30;56.70;;;;;;4954279;28;20042;-86
2022/08/23 10:20:34;;;;;;;3.72;2.47;;;31.30;56.00;;;;;;4966044;28;20053;-86
2022/08/23 10:23:17;;;;;;;4.63;2.33;;;31.50;56.40;;;;;;4950082;28;20041;-85
2022/08/23 10:25:57;;;;;;;7.72;3.33;;;32.00;54.30;;;;;;4980486;28;20026;-86
2022/08/23 10:31:38;;;;;;;4.32;2.28;;;32.50;53.10;;;;;;4976987;28;20034;-84
2022/08/23 10:34:39;;;;;;;4.68;2.47;;;32.50;53.90;;;;;;4982837;28;20081;-84
2022/08/23 10:37:19;;;;;;;4.55;2.90;;;32.60;53.60;;;;;;4973620;28;20027;-82
2022/08/23 10:39:47;;;;;;;4.72;2.47;;;32.60;54.30;;;;;;4970673;28;20026;-81
2022/08/23 10:42:27;;;;;;;4.80;2.60;;;32.70;54.30;;;;;;4981483;28;20034;-81
2022/08/23 10:44:57;;;;;;;5.38;2.80;;;33.10;52.20;;;;;;4974670;28;20118;-81
2022/08/23 10:47:31;;;;;;;7.53;3.72;;;34.00;50.90;;;;;;4985228;28;20030;-80
2022/08/23 10:49:58;;;;;;;4.85;3.00;;;33.10;52.10;;;;;;4969061;28;20731;-80
2022/08/23 10:52:30;;;;;;;7.32;3.25;;;32.90;52.80;;;;;;4973298;28;20044;-78
2022/08/23 10:54:59;;;;;;;5.80;3.20;;;33.10;52.30;;;;;;4978977;28;20580;-79
2022/08/23 10:57:33;;;;;;;3.63;2.38;;;33.10;52.20;;;;;;4956357;28;20477;-78
2022/08/23 10:59:58;;;;;;;6.28;2.45;;;33.70;51.20;;;;;;4981592;28;20034;-78
2022/08/23 11:02:59;;;;;;;6.50;3.33;;;33.60;50.80;;;;;;4971521;28;20026;-77
2022/08/23 11:05:34;;;;;;;6.82;2.80;;;34.40;50.50;;;;;;4986465;28;20030;-79
2022/08/23 11:08:03;;;;;;;4.07;2.90;;;34.40;50.90;;;;;;4968331;28;20049;-78
2022/08/23 11:10:38;;;;;;;5.07;2.95;;;34.20;50.80;;;;;;4972511;28;20203;-78
2022/08/23 11:13:17;;;;;;;4.97;3.28;;;33.80;50.80;;;;;;4994858;28;20267;-78
2022/08/23 11:15:45;;;;;;;7.43;3.23;;;33.80;50.70;;;;;;4288569;28;10000418;-78
2022/08/23 11:18:29;;;;;;;2.78;2.45;;;33.80;50.70;;;;;;4979667;28;20285;-79
2022/08/23 11:21:04;;;;;;;5.45;2.70;;;33.70;50.80;;;;;;4979341;28;20137;-78
2022/08/23 11:23:53;;;;;;;4.13;2.42;;;35.00;46.50;;;;;;4961977;28;20077;-78
2022/08/23 11:26:21;;;;;;;4.40;2.88;;;34.40;50.20;;;;;;4978152;28;20034;-78
2022/08/23 11:28:47;;;;;;;3.30;2.30;;;35.50;46.30;;;;;;4998558;28;20034;-78
2022/08/23 11:31:38;;;;;;;5.15;2.40;;;35.20;48.60;;;;;;4952729;28;20039;-78
2022/08/23 11:34:09;;;;;;;3.45;2.30;;;35.60;47.60;;;;;;4997928;28;20034;-78
2022/08/23 11:36:35;;;;;;;6.13;2.53;;;36.00;46.60;;;;;;4969700;28;20031;-78
2022/08/23 11:39:09;;;;;;;3.70;2.25;;;35.50;47.60;;;;;;4953396;28;20072;-78
2022/08/23 11:41:55;;;;;;;8.23;2.33;;;35.70;47.60;;;;;;4986325;28;20796;-78
2022/08/23 11:44:26;;;;;;;3.17;2.50;;;35.60;47.30;;;;;;4980110;28;20039;-78
2022/08/23 11:46:53;;;;;;;2.60;2.22;;;36.20;44.90;;;;;;4969325;28;20034;-78
2022/08/23 11:49:31;;;;;;;5.50;2.53;;;35.90;46.80;;;;;;4981622;28;20498;-78
2022/08/23 11:52:24;;;;;;;3.67;2.28;;;36.20;46.40;;;;;;4967871;28;20509;-77
2022/08/23 11:55:05;;;;;;;2.30;2.10;;;36.20;46.50;;;;;;4980552;28;20030;-77
2022/08/23 11:57:43;;;;;;;8.07;2.80;;;36.80;44.30;;;;;;4981907;28;20034;-77
2022/08/23 12:00:21;;;;;;;2.85;2.15;;;36.30;44.70;;;;;;4967606;28;20029;-78
2022/08/23 12:03:02;;;;;;;5.25;2.17;;;37.50;41.10;;;;;;4971350;28;20672;-78
2022/08/23 12:05:37;;;;;;;10.55;2.83;;;37.70;40.50;;;;;;4972202;28;20116;-78
2022/08/23 12:08:02;;;;;;;4.03;2.30;;;37.80;40.30;;;;;;4986086;28;20026;-77
2022/08/23 12:10:40;;;;;;;5.82;2.22;;;37.60;40.00;;;;;;4987455;28;20030;-77
2022/08/23 12:13:21;;;;;;;5.38;2.40;;;37.10;41.90;;;;;;5000984;28;20026;-78
2022/08/23 12:16:18;;;;;;;5.15;2.60;;;36.20;43.70;;;;;;4987023;28;20033;-77
2022/08/23 12:18:52;;;;;;;3.47;2.17;;;37.40;41.80;;;;;;5001260;28;20541;-78
2022/08/23 12:21:38;;;;;;;6.40;2.78;;;37.20;43.20;;;;;;5000771;28;20038;-77
2022/08/23 12:24:14;;;;;;;;;;;37.80;39.50;;;;;;4970539;28;20085;-79
2022/08/23 12:26:46;;;;;;;10.52;2.60;;;37.70;41.10;;;;;;4989415;28;20343;-78
2022/08/23 12:29:22;;;;;;;3.05;2.00;;;37.50;40.30;;;;;;5003475;28;20552;-79
2022/08/23 12:32:06;;;;;;;8.73;3.00;;;38.00;40.10;;;;;;4971649;28;20065;-77
2022/08/23 12:34:39;;;;;;;4.80;2.50;;;36.70;40.70;;;;;;4955946;28;20125;-78
2022/08/23 12:37:28;;;;;;;5.43;2.75;;;36.60;41.30;;;;;;4954566;28;20557;-78
2022/08/23 12:39:56;;;;;;;4.45;2.30;;;37.70;39.90;;;;;;4965800;28;20592;-78
2022/08/23 12:42:29;;;;;;;3.75;2.00;;;37.50;39.80;;;;;;4954726;28;20029;-77
2022/08/23 12:45:25;;;;;;;4.55;2.38;;;37.50;41.20;;;;;;4983208;28;20176;-78
2022/08/23 12:47:58;;;;;;;4.30;2.15;;;37.20;42.00;;;;;;4972400;28;20489;-78
2022/08/23 12:50:26;;;;;;;7.07;2.53;;;37.00;40.20;;;;;;4968448;28;20241;-77
2022/08/23 12:53:00;;;;;;;5.45;1.88;;;36.80;41.40;;;;;;4955162;28;20030;-78
2022/08/23 12:55:34;;;;;;;3.40;2.03;;;37.50;40.30;;;;;;4981584;28;20033;-78
2022/08/23 12:58:00;;;;;;;4.37;1.90;;;37.70;40.80;;;;;;4978931;28;20529;-77
2022/08/23 13:00:30;;;;;;;4.60;2.03;;;38.20;39.20;;;;;;4971004;28;20077;-78
2022/08/23 13:03:05;;;;;;;3.97;2.20;;;37.80;40.60;;;;;;4967315;28;20038;-78
2022/08/23 13:05:37;;;;;;;2.70;1.70;;;37.80;40.50;;;;;;4942132;28;20418;-78
2022/08/23 13:08:06;;;;;;;2.25;1.52;;;38.30;39.60;;;;;;4649126;28;10000858;-79
2022/08/23 13:10:32;;;;;;;5.30;2.00;;;38.30;38.40;;;;;;4949791;28;20261;-77
2022/08/23 13:12:58;;;;;;;5.78;1.90;;;38.70;36.80;;;;;;4966851;28;20033;-77